Time;durP1;ratioP1;P1;durP2;ratioP2;P2;SDS_P1;SDS_P2;PMS_P1;PMS_P2;Temp;Humidity;BMP_temperature;BMP_pressure;BME280_temperature;BME280_humidity;BME280_pressure;Samples;Min_cycle;Max_cycle;Signal;HPM_P1;HPM_P2
2024/04/06 00:01:33;;;;;;;7.70;1.97;;;13.10;99.90;;;13.89;100.00;97933.22;5001906;28;20893;-77
2024/04/06 00:04:00;;;;;;;4.83;2.00;;;12.90;99.90;;;13.88;100.00;97928.97;5003126;28;20502;-77
2024/04/06 00:06:27;;;;;;;5.90;1.80;;;12.90;99.90;;;13.85;100.00;97920.75;4999829;28;20487;-78
2024/04/06 00:08:54;;;;;;;5.90;2.07;;;12.90;99.90;;;13.79;100.00;97922.38;4996911;28;20477;-77
2024/04/06 00:11:20;;;;;;;4.73;2.30;;;12.80;99.90;;;13.80;100.00;97920.53;4998681;28;20472;-77
2024/04/06 00:13:51;;;;;;;5.33;1.83;;;12.90;99.90;;;13.78;100.00;97931.25;5002995;28;20459;-78
2024/04/06 00:16:17;;;;;;;9.93;2.27;;;12.80;99.90;;;13.74;100.00;97929.28;5000006;28;20463;-77
2024/04/06 00:18:45;;;;;;;5.60;2.07;;;12.80;99.90;;;13.72;100.00;97936.56;5016542;28;20461;-77
2024/04/06 00:21:11;;;;;;;4.50;1.80;;;12.70;99.90;;;13.70;100.00;97930.72;5002596;28;20483;-78
2024/04/06 00:23:39;;;;;;;2.30;1.70;;;12.70;99.90;;;13.69;100.00;97929.09;4997665;28;20507;-77
2024/04/06 00:26:05;;;;;;;6.73;1.53;;;12.80;99.90;;;13.72;100.00;97928.66;5003401;28;20474;-78
2024/04/06 00:28:34;;;;;;;3.53;2.13;;;12.90;99.90;;;13.76;100.00;97929.88;5000875;28;20541;-77
2024/04/06 00:31:02;;;;;;;12.80;2.27;;;12.80;99.90;;;13.72;100.00;97918.16;4998277;28;21114;-78
2024/04/06 00:33:29;;;;;;;7.53;1.83;;;12.90;99.90;;;13.63;100.00;97922.88;5015699;28;20491;-78
2024/04/06 00:35:56;;;;;;;9.00;1.67;;;12.80;99.90;;;13.44;100.00;97916.66;5004187;28;20469;-78
2024/04/06 00:38:23;;;;;;;6.73;2.20;;;12.60;99.90;;;13.40;100.00;97912.84;4999372;28;20478;-78
2024/04/06 00:40:51;;;;;;;2.60;1.77;;;12.50;99.90;;;13.34;100.00;97916.28;5003948;28;20514;-77
2024/04/06 00:43:18;;;;;;;2.90;1.67;;;12.40;99.90;;;13.32;100.00;97918.34;5003100;28;20497;-77
2024/04/06 00:45:44;;;;;;;3.67;2.03;;;12.40;99.90;;;13.26;100.00;97911.25;5002238;28;21050;-77
2024/04/06 00:48:13;;;;;;;2.97;1.60;;;12.30;99.90;;;13.22;100.00;97920.59;5000260;28;20489;-78
2024/04/06 00:50:40;;;;;;;5.17;1.80;;;12.30;99.90;;;13.21;100.00;97918.97;5000711;28;20835;-77
2024/04/06 00:53:07;;;;;;;6.40;2.00;;;12.30;99.90;;;13.26;100.00;97915.75;5001448;28;21484;-78
2024/04/06 00:55:34;;;;;;;2.70;1.87;;;12.30;99.90;;;13.21;100.00;97918.16;4997196;28;20472;-77
2024/04/06 00:58:01;;;;;;;3.77;1.80;;;12.30;99.90;;;13.08;100.00;97919.00;5008436;28;20465;-77
2024/04/06 01:00:28;;;;;;;7.50;1.60;;;12.10;99.90;;;13.01;100.00;97921.63;5014816;28;20831;-77
2024/04/06 01:02:55;;;;;;;17.83;4.13;;;12.10;99.90;;;13.00;100.00;97921.81;5002441;28;20459;-77
2024/04/06 01:05:23;;;;;;;2.80;1.90;;;12.10;99.90;;;13.01;100.00;97915.56;5002685;28;20471;-77
2024/04/06 01:07:51;;;;;;;5.93;1.70;;;12.10;99.90;;;12.94;100.00;97912.97;4998884;28;20475;-77
2024/04/06 01:10:18;;;;;;;5.20;1.50;;;12.00;99.90;;;12.99;100.00;97904.44;4998546;28;20479;-77
2024/04/06 01:12:45;;;;;;;14.03;2.03;;;12.00;99.90;;;12.85;100.00;97908.09;4996164;28;20973;-77
2024/04/06 01:15:12;;;;;;;2.97;1.80;;;11.90;99.90;;;12.82;100.00;97893.59;5001988;28;20518;-77
2024/04/06 01:17:39;;;;;;;13.13;1.90;;;11.90;99.90;;;12.79;100.00;97894.00;5001953;28;20466;-77
2024/04/06 01:20:08;;;;;;;1.67;1.57;;;11.80;99.90;;;12.81;100.00;97896.41;4996588;28;20465;-78
2024/04/06 01:22:36;;;;;;;14.93;1.90;;;11.90;99.90;;;12.74;100.00;97883.28;5002318;28;20485;-78
2024/04/06 01:25:06;;;;;;;6.57;1.50;;;11.80;99.90;;;12.74;100.00;97893.00;5000978;28;20559;-78
2024/04/06 01:27:32;;;;;;;3.43;1.60;;;11.80;99.90;;;12.74;100.00;97885.13;5018960;28;20470;-77
2024/04/06 01:30:00;;;;;;;3.47;1.77;;;11.80;99.90;;;12.68;100.00;97892.00;5004361;28;21079;-77
2024/04/06 01:32:27;;;;;;;1.63;1.53;;;11.80;99.90;;;12.55;100.00;97887.56;5006689;28;20545;-77
2024/04/06 01:34:55;;;;;;;3.63;1.90;;;11.70;99.90;;;12.55;100.00;97876.28;5006236;28;20479;-77
2024/04/06 01:37:21;;;;;;;3.20;1.60;;;11.70;99.90;;;12.57;100.00;97885.53;5009241;28;20475;-77
2024/04/06 01:39:49;;;;;;;3.87;1.80;;;11.70;99.90;;;12.51;100.00;97880.31;5023333;28;20459;-78
2024/04/06 01:42:17;;;;;;;4.80;1.90;;;11.60;99.90;;;12.50;100.00;97883.94;5006584;28;20457;-77
2024/04/06 01:44:44;;;;;;;7.17;1.90;;;11.60;99.90;;;12.45;100.00;97870.63;5005469;28;20505;-77
2024/04/06 01:47:11;;;;;;;3.00;1.93;;;11.60;99.90;;;12.44;100.00;97885.56;5005800;28;20478;-78
2024/04/06 01:49:38;;;;;;;5.37;1.90;;;11.50;99.90;;;12.42;100.00;97882.34;5018734;28;20464;-78
2024/04/06 01:52:05;;;;;;;4.37;1.90;;;11.50;99.90;;;12.42;100.00;97890.22;5006876;28;20474;-77
2024/04/06 01:54:33;;;;;;;4.63;1.80;;;11.50;99.90;;;12.37;100.00;97890.00;5003322;28;20465;-78
2024/04/06 01:56:59;;;;;;;3.67;1.67;;;11.50;99.90;;;12.29;100.00;97882.31;5003939;28;20466;-77
2024/04/06 01:59:29;;;;;;;4.30;2.03;;;11.50;99.90;;;12.26;100.00;97893.22;5001283;28;20828;-77
2024/04/06 02:01:57;;;;;;;4.23;1.60;;;11.40;99.90;;;12.28;100.00;97898.28;4998462;28;20470;-78
2024/04/06 02:04:24;;;;;;;7.13;1.97;;;11.40;99.90;;;12.25;100.00;97896.06;5015509;28;20499;-77
2024/04/06 02:06:51;;;;;;;6.70;1.70;;;11.30;99.90;;;12.30;100.00;97893.63;5003003;28;20470;-77
2024/04/06 02:09:18;;;;;;;4.20;2.13;;;11.40;99.90;;;12.27;100.00;97889.59;5001728;28;20497;-77
2024/04/06 02:11:44;;;;;;;3.37;1.63;;;11.40;99.90;;;12.30;100.00;97883.13;5000134;28;20468;-77
2024/04/06 02:14:12;;;;;;;3.43;1.53;;;11.40;99.90;;;12.21;100.00;97900.09;5003622;28;20474;-78
2024/04/06 02:16:39;;;;;;;2.00;1.60;;;11.30;99.90;;;12.17;100.00;97893.63;5006481;28;20463;-77
2024/04/06 02:19:07;;;;;;;3.13;1.43;;;11.40;99.90;;;12.20;100.00;97904.53;5002617;28;20463;-77
2024/04/06 02:21:33;;;;;;;2.17;1.70;;;11.30;99.90;;;12.17;100.00;97897.06;4997665;28;20500;-77
2024/04/06 02:24:01;;;;;;;3.10;1.90;;;11.30;99.90;;;12.18;100.00;97900.50;5018865;28;20513;-77
2024/04/06 02:26:27;;;;;;;4.10;1.80;;;11.20;99.90;;;12.15;100.00;97885.16;5005235;28;20475;-77
2024/04/06 02:28:55;;;;;;;10.00;2.10;;;11.20;99.90;;;12.07;100.00;97889.59;5005978;28;20479;-77
2024/04/06 02:31:22;;;;;;;4.00;1.60;;;11.10;99.90;;;12.00;100.00;97893.22;5005612;28;20475;-77
2024/04/06 02:33:51;;;;;;;2.03;1.80;;;11.10;99.90;;;12.01;100.00;97889.56;5005064;28;21058;-78
2024/04/06 02:36:17;;;;;;;3.10;1.70;;;11.10;99.90;;;12.03;100.00;97892.81;5006160;28;20472;-77
2024/04/06 02:38:45;;;;;;;3.87;2.03;;;11.10;99.90;;;12.00;100.00;97898.44;5004197;28;20468;-77
2024/04/06 02:41:11;;;;;;;2.47;1.60;;;11.10;99.90;;;11.91;100.00;97886.53;5004824;28;20478;-77
2024/04/06 02:43:39;;;;;;;1.50;1.40;;;11.00;99.90;;;11.84;100.00;97894.38;5004419;28;20877;-77
2024/04/06 02:46:05;;;;;;;5.63;1.80;;;10.90;99.90;;;11.78;100.00;97886.50;5004124;28;20502;-77
2024/04/06 02:48:32;;;;;;;3.17;2.07;;;10.90;99.90;;;11.77;100.00;97890.13;5003194;28;20936;-77
2024/04/06 02:51:01;;;;;;;4.13;2.00;;;10.80;99.90;;;11.81;100.00;97893.97;5003726;28;20472;-77
2024/04/06 02:53:29;;;;;;;4.63;1.77;;;10.90;99.90;;;11.85;100.00;97887.31;5005212;28;20471;-77
2024/04/06 02:55:55;;;;;;;12.10;1.80;;;10.90;99.90;;;11.88;100.00;97887.75;5020722;28;21040;-77
2024/04/06 02:58:23;;;;;;;1.83;1.60;;;11.00;99.90;;;11.84;100.00;97904.03;5017122;28;20471;-76
2024/04/06 03:00:49;;;;;;;5.47;2.77;;;10.90;99.90;;;11.79;100.00;97901.22;5000803;28;20469;-77
2024/04/06 03:03:17;;;;;;;3.63;2.00;;;10.80;99.90;;;11.78;100.00;97905.66;4995601;28;20978;-81
2024/04/06 03:05:45;;;;;;;3.60;2.10;;;10.90;99.90;;;11.79;100.00;97903.84;4998980;28;20494;-77
2024/04/06 03:08:13;;;;;;;3.67;1.67;;;11.00;99.90;;;11.76;100.00;97917.34;4991537;28;20517;-77
2024/04/06 03:10:40;;;;;;;5.60;1.73;;;10.90;99.90;;;11.67;100.00;97916.66;4994346;28;20471;-77
2024/04/06 03:13:08;;;;;;;2.20;1.70;;;10.80;99.90;;;11.63;100.00;97922.53;4994742;28;20821;-77
2024/04/06 03:15:34;;;;;;;8.63;2.30;;;10.70;99.90;;;11.61;100.00;97920.06;4998828;28;20474;-77
2024/04/06 03:18:01;;;;;;;3.23;1.77;;;10.70;99.90;;;11.58;100.00;97926.53;4993551;28;20820;-77
2024/04/06 03:20:28;;;;;;;5.37;2.33;;;10.70;99.90;;;11.59;100.00;97922.88;5000931;28;20493;-83
2024/04/06 03:23:03;;;;;;;3.60;2.10;;;10.70;99.90;;;11.49;100.00;97919.81;4995655;28;20476;-81
2024/04/06 03:25:34;;;;;;;4.43;1.80;;;10.50;99.90;;;11.48;100.00;97923.47;5013514;28;20518;-77
2024/04/06 03:28:01;;;;;;;9.10;1.73;;;10.50;99.90;;;11.48;100.00;97925.28;5011508;28;20467;-77
2024/04/06 03:30:28;;;;;;;3.40;2.00;;;10.60;99.90;;;11.42;100.00;97929.47;5016664;28;20471;-83
2024/04/06 03:32:55;;;;;;;7.50;1.97;;;10.50;99.90;;;11.40;100.00;97933.28;5001445;28;20530;-77
2024/04/06 03:35:22;;;;;;;9.20;2.00;;;10.50;99.90;;;11.41;100.00;97934.91;5000021;28;20463;-77
2024/04/06 03:37:50;;;;;;;4.17;1.50;;;10.50;99.90;;;11.43;100.00;97936.31;5002109;28;20488;-77
2024/04/06 03:40:20;;;;;;;2.20;1.70;;;10.50;99.90;;;11.40;100.00;97931.47;5001011;28;20980;-77
2024/04/06 03:42:55;;;;;;;6.73;1.70;;;10.50;99.90;;;11.37;100.00;97936.31;5004055;28;20465;-77
2024/04/06 03:45:23;;;;;;;3.10;1.83;;;10.40;99.90;;;11.34;100.00;97929.66;5001742;28;20513;-77
2024/04/06 03:47:50;;;;;;;9.70;2.00;;;10.40;99.90;;;11.35;100.00;97933.09;5002213;28;20466;-77
2024/04/06 03:50:19;;;;;;;1.97;1.30;;;10.40;99.90;;;11.35;100.00;97926.00;5014897;28;20475;-77
2024/04/06 03:52:46;;;;;;;3.30;1.80;;;10.40;99.90;;;11.34;100.00;97919.19;5002841;28;20470;-77
2024/04/06 03:55:13;;;;;;;5.20;1.70;;;10.40;99.90;;;11.23;100.00;97917.09;5001095;28;20466;-77
2024/04/06 03:57:40;;;;;;;3.37;1.67;;;10.30;99.90;;;11.16;100.00;97916.25;4996699;28;20535;-78
2024/04/06 04:00:11;;;;;;;5.93;1.70;;;10.20;99.90;;;11.20;100.00;97916.69;5001136;28;20462;-77
2024/04/06 04:02:39;;;;;;;8.43;1.70;;;10.20;99.90;;;11.15;100.00;97919.06;5001137;28;21065;-77
2024/04/06 04:05:08;;;;;;;3.30;1.63;;;10.20;99.90;;;11.13;100.00;97921.88;5002472;28;20497;-76
2024/04/06 04:07:35;;;;;;;6.57;1.90;;;10.20;99.90;;;11.13;100.00;97923.69;5001513;28;20469;-77
2024/04/06 04:10:03;;;;;;;10.03;1.97;;;10.20;99.90;;;11.08;100.00;97929.50;5003225;28;20470;-77
2024/04/06 04:12:30;;;;;;;10.43;1.90;;;10.10;99.90;;;11.07;100.00;97923.44;5003550;28;20562;-77
2024/04/06 04:14:59;;;;;;;7.80;1.80;;;10.10;99.90;;;11.08;100.00;97929.50;4999247;28;20474;-77
2024/04/06 04:17:27;;;;;;;5.83;2.13;;;10.20;99.90;;;11.05;100.00;97937.75;5002463;28;20465;-78
2024/04/06 04:19:54;;;;;;;3.10;1.90;;;10.10;99.90;;;11.05;100.00;97937.75;5004237;28;20494;-77
2024/04/06 04:22:21;;;;;;;7.50;1.50;;;10.10;99.90;;;10.99;100.00;97935.91;4999308;28;20548;-77
2024/04/06 04:24:48;;;;;;;1.70;1.40;;;10.00;99.90;;;10.90;100.00;97939.66;5000242;28;20490;-80
2024/04/06 04:27:15;;;;;;;3.83;1.63;;;9.90;99.90;;;10.84;100.00;97937.81;4998872;28;20843;-77
2024/04/06 04:29:42;;;;;;;3.43;1.60;;;9.90;99.90;;;10.83;100.00;97925.75;5010045;28;20844;-77
2024/04/06 04:32:10;;;;;;;5.00;1.73;;;9.90;99.90;;;10.80;100.00;97931.31;4998324;28;20579;-77
2024/04/06 04:34:39;;;;;;;6.13;1.50;;;9.90;99.90;;;10.77;100.00;97943.00;5012445;28;20465;-77
2024/04/06 04:37:05;;;;;;;4.97;2.00;;;9.80;99.90;;;10.76;100.00;97937.97;4996465;28;20908;-80
2024/04/06 04:39:33;;;;;;;6.33;2.30;;;9.80;99.90;;;10.76;100.00;97945.81;4999693;28;20501;-77
2024/04/06 04:41:59;;;;;;;14.03;2.20;;;9.80;99.90;;;10.76;100.00;97948.44;4998363;28;20469;-77
2024/04/06 04:44:27;;;;;;;4.95;1.92;;;9.80;99.90;;;10.79;100.00;97945.44;4994406;28;20472;-76
2024/04/06 04:46:53;;;;;;;7.25;1.83;;;9.90;99.90;;;10.78;100.00;97938.56;5000983;28;20490;-76
2024/04/06 04:49:25;;;;;;;2.97;1.80;;;9.80;99.90;;;10.80;100.00;97939.19;4999476;28;20520;-76
2024/04/06 04:51:53;;;;;;;10.40;1.67;;;9.80;99.90;;;10.76;100.00;97943.97;5004023;28;21012;-76
2024/04/06 04:54:22;;;;;;;14.40;2.13;;;9.80;99.90;;;10.71;100.00;97953.41;5009037;28;20454;-76
2024/04/06 04:56:48;;;;;;;1.70;1.33;;;9.80;99.90;;;10.71;100.00;97953.41;5009100;28;20486;-76
2024/04/06 04:59:16;;;;;;;2.00;1.60;;;9.80;99.90;;;10.69;100.00;97942.34;5003632;28;20818;-76
2024/04/06 05:01:42;;;;;;;5.13;1.87;;;9.80;99.90;;;10.69;100.00;97944.97;4998340;28;20504;-76
2024/04/06 05:04:09;;;;;;;2.40;1.30;;;9.70;99.90;;;10.61;100.00;97948.50;4998548;28;20480;-75
2024/04/06 05:06:36;;;;;;;10.90;3.67;;;9.60;99.90;;;10.51;100.00;97951.47;5000437;28;20454;-75
2024/04/06 05:09:06;;;;;;;2.93;1.80;;;9.60;99.90;;;10.46;100.00;97959.03;5019268;28;20459;-76
2024/04/06 05:11:33;;;;;;;4.80;1.80;;;9.50;99.90;;;10.45;100.00;97964.44;5007246;28;20483;-76
2024/04/06 05:14:01;;;;;;;5.93;1.77;;;9.50;99.90;;;10.42;100.00;97965.63;5006088;28;20880;-76
2024/04/06 05:16:27;;;;;;;1.60;1.40;;;9.50;99.90;;;10.49;100.00;97969.13;5002773;28;20472;-76
2024/04/06 05:18:54;;;;;;;3.87;1.57;;;9.60;99.90;;;10.47;100.00;97968.50;5007588;28;20485;-75
2024/04/06 05:21:21;;;;;;;5.03;1.73;;;9.60;99.90;;;10.51;100.00;97963.72;5002442;28;20849;-75
2024/04/06 05:23:49;;;;;;;1.70;1.60;;;9.60;99.90;;;10.54;100.00;97977.22;5001641;28;20469;-76
2024/04/06 05:26:17;;;;;;;7.90;2.20;;;9.60;99.90;;;10.56;100.00;97977.03;5006126;28;20844;-76
2024/04/06 05:28:44;;;;;;;3.33;2.20;;;9.60;99.90;;;10.52;100.00;97978.38;5006277;28;20845;-76
2024/04/06 05:31:11;;;;;;;7.13;1.97;;;9.60;99.90;;;10.58;100.00;97982.88;5017867;28;20869;-76
2024/04/06 05:33:38;;;;;;;4.83;1.40;;;9.60;99.90;;;10.58;100.00;97977.66;5008520;28;20477;-76
2024/04/06 05:36:06;;;;;;;7.50;2.00;;;9.70;99.90;;;10.64;100.00;97987.34;5022704;28;20468;-76
2024/04/06 05:38:34;;;;;;;2.50;1.80;;;9.70;99.90;;;10.67;100.00;97975.69;5006783;28;20473;-76
2024/04/06 05:41:00;;;;;;;3.70;1.90;;;9.80;99.90;;;10.71;100.00;97982.19;5007866;28;20527;-76
2024/04/06 05:43:29;;;;;;;4.30;1.57;;;9.80;99.90;;;10.76;100.00;97987.66;5005767;28;20497;-76
2024/04/06 05:46:02;;;;;;;2.07;1.77;;;9.90;99.90;;;10.80;100.00;97994.09;5008209;28;20503;-76
2024/04/06 05:48:31;;;;;;;9.73;2.50;;;9.90;99.90;;;10.86;100.00;97990.75;5008877;28;20473;-76
2024/04/06 05:50:58;;;;;;;4.97;2.00;;;9.90;99.90;;;10.93;100.00;97994.22;5006926;28;20519;-76
2024/04/06 05:53:26;;;;;;;5.40;2.77;;;10.00;99.90;;;10.89;100.00;97998.22;5004387;28;20480;-76
2024/04/06 05:55:52;;;;;;;6.63;1.77;;;9.90;99.90;;;10.85;100.00;97982.09;5004223;28;21446;-76
2024/04/06 05:58:20;;;;;;;7.30;2.27;;;9.90;99.90;;;10.78;100.00;97989.09;5020906;28;20469;-76
2024/04/06 06:00:49;;;;;;;19.93;3.17;;;9.90;99.90;;;10.70;100.00;98002.28;5007598;28;20466;-77
2024/04/06 06:03:16;;;;;;;8.83;2.73;;;9.80;99.90;;;10.74;100.00;97989.63;5008720;28;20476;-76
2024/04/06 06:05:44;;;;;;;5.70;2.13;;;9.80;99.90;;;10.81;100.00;97985.25;5007829;28;20497;-77
2024/04/06 06:08:10;;;;;;;5.13;2.33;;;9.90;99.90;;;10.88;100.00;97993.97;5002778;28;20987;-76
2024/04/06 06:10:38;;;;;;;4.03;2.43;;;10.00;99.90;;;10.93;100.00;97999.47;5002967;28;20833;-76
2024/04/06 06:13:04;;;;;;;3.40;2.30;;;10.00;99.90;;;10.98;100.00;97983.97;5004965;28;20461;-76
2024/04/06 06:15:32;;;;;;;2.70;2.13;;;10.10;99.90;;;10.97;100.00;97998.06;5006983;28;20969;-76
2024/04/06 06:17:59;;;;;;;11.83;2.10;;;10.10;99.90;;;10.98;100.00;97997.06;5018754;28;20562;-76
2024/04/06 06:20:27;;;;;;;10.63;2.77;;;10.10;99.90;;;10.98;100.00;97997.06;5017589;28;20481;-76
2024/04/06 06:22:53;;;;;;;3.90;1.97;;;10.10;99.90;;;10.95;100.00;97998.25;5003036;28;20478;-76
2024/04/06 06:25:21;;;;;;;3.70;1.93;;;10.00;99.90;;;10.97;100.00;97998.88;5001223;28;20501;-76
2024/04/06 06:27:47;;;;;;;4.10;2.03;;;10.00;99.90;;;10.98;100.00;98002.28;4999205;28;20470;-76
2024/04/06 06:30:15;;;;;;;2.30;1.87;;;10.00;99.90;;;11.01;100.00;98001.91;5008315;28;20494;-76
2024/04/06 06:32:41;;;;;;;5.83;2.27;;;10.10;99.90;;;11.05;100.00;97998.72;5008080;28;20464;-76
2024/04/06 06:35:11;;;;;;;12.23;2.10;;;10.10;99.90;;;11.07;100.00;98001.16;5020101;28;20470;-76
2024/04/06 06:37:37;;;;;;;2.10;1.90;;;10.10;99.90;;;11.12;100.00;97993.53;5001227;28;20534;-76
2024/04/06 06:40:09;;;;;;;4.07;2.10;;;10.20;99.90;;;11.11;100.00;97992.72;5007377;28;20469;-76
2024/04/06 06:42:35;;;;;;;3.80;2.13;;;10.10;99.90;;;11.12;100.00;97996.16;5005916;28;20467;-76
2024/04/06 06:45:05;;;;;;;7.50;1.83;;;10.20;99.90;;;11.19;100.00;97993.59;5008459;28;20497;-76
2024/04/06 06:47:32;;;;;;;9.40;2.50;;;10.20;99.90;;;11.21;100.00;98008.09;5005309;28;20470;-76
2024/04/06 06:50:00;;;;;;;5.13;2.20;;;10.30;99.90;;;11.25;100.00;97998.84;5005716;28;20467;-76
2024/04/06 06:52:28;;;;;;;4.70;2.30;;;10.30;99.90;;;11.31;100.00;98002.53;5011495;28;20467;-76
2024/04/06 06:54:56;;;;;;;3.57;2.30;;;10.40;99.90;;;11.33;100.00;97996.09;5020198;28;20462;-76
2024/04/06 06:57:22;;;;;;;6.43;2.47;;;10.40;99.90;;;11.34;100.00;98002.94;5003811;28;20466;-76
2024/04/06 06:59:50;;;;;;;11.90;2.00;;;10.50;99.90;;;11.38;100.00;97998.94;5001765;28;20467;-76
2024/04/06 07:02:16;;;;;;;5.67;1.80;;;10.50;99.90;;;11.40;100.00;97999.56;5005364;28;20496;-76
2024/04/06 07:04:45;;;;;;;2.30;1.80;;;10.50;99.90;;;11.49;100.00;98000.19;5005336;28;20490;-76
2024/04/06 07:07:11;;;;;;;10.47;1.87;;;10.60;99.90;;;11.53;100.00;97997.00;5005403;28;20485;-77
2024/04/06 07:09:40;;;;;;;2.20;2.00;;;10.70;99.90;;;11.61;100.00;97999.47;5015489;28;20468;-76
2024/04/06 07:12:07;;;;;;;4.03;1.90;;;10.70;99.90;;;11.66;100.00;97992.84;5000657;28;20475;-77
2024/04/06 07:14:35;;;;;;;2.57;2.00;;;10.80;99.90;;;11.72;100.00;97984.22;5000167;28;20485;-76
2024/04/06 07:17:02;;;;;;;6.20;2.13;;;10.90;99.90;;;11.78;100.00;97983.44;5001745;28;20472;-76
2024/04/06 07:19:29;;;;;;;5.10;2.63;;;11.00;99.90;;;11.87;100.00;97977.81;5004738;28;20484;-76
2024/04/06 07:21:55;;;;;;;1.63;1.50;;;11.10;99.90;;;11.93;100.00;97978.88;5003941;28;20474;-76
2024/04/06 07:24:23;;;;;;;4.33;1.57;;;11.20;99.90;;;12.00;100.00;97979.69;5001823;28;21047;-76
2024/04/06 07:26:51;;;;;;;1.60;1.40;;;11.20;99.90;;;12.10;100.00;97978.31;5003646;28;20466;-75
2024/04/06 07:29:18;;;;;;;2.10;1.67;;;11.40;99.90;;;12.17;100.00;97967.84;5005686;28;20949;-76
2024/04/06 07:31:45;;;;;;;2.37;1.37;;;11.40;99.90;;;12.27;100.00;97968.25;5018507;28;20809;-76
2024/04/06 07:34:12;;;;;;;2.80;1.50;;;11.50;99.90;;;12.42;100.00;97965.47;5008589;28;20470;-76
2024/04/06 07:36:39;;;;;;;10.47;1.57;;;11.70;99.90;;;12.57;100.00;97979.97;5004468;28;20497;-76
2024/04/06 07:39:07;;;;;;;10.80;1.40;;;11.90;99.90;;;12.69;100.00;97968.88;5003231;28;21048;-76
2024/04/06 07:41:33;;;;;;;2.10;1.20;;;12.00;99.90;;;12.84;100.00;97966.88;5006320;28;20486;-75
2024/04/06 07:44:02;;;;;;;7.07;1.30;;;12.20;99.90;;;13.00;100.00;97977.75;5004856;28;20902;-76
2024/04/06 07:46:28;;;;;;;2.03;1.30;;;12.30;99.90;;;13.17;100.00;97974.72;5005077;28;20522;-76
2024/04/06 07:48:56;;;;;;;4.20;1.57;;;12.50;99.90;;;13.31;100.00;97974.50;5006682;28;20851;-76
2024/04/06 07:51:22;;;;;;;1.47;1.10;;;12.60;99.90;;;13.49;100.00;97972.03;5008106;28;20465;-75
2024/04/06 07:53:50;;;;;;;1.37;1.00;;;12.80;99.90;;;13.54;100.00;97976.63;5009325;28;20530;-75
2024/04/06 07:56:16;;;;;;;3.10;1.30;;;12.90;99.90;;;13.65;100.00;97981.25;5008907;28;20458;-76
2024/04/06 07:58:44;;;;;;;1.10;0.90;;;13.00;99.90;;;13.83;100.00;97996.34;5003670;28;20471;-76
2024/04/06 08:01:12;;;;;;;2.90;1.10;;;13.20;99.90;;;13.92;100.00;98000.34;5021306;28;20466;-76
2024/04/06 08:03:39;;;;;;;2.30;1.20;;;13.30;99.90;;;14.02;100.00;97995.47;5017000;28;20463;-76
2024/04/06 08:06:06;;;;;;;4.80;1.20;;;13.30;99.90;;;14.11;100.00;97994.19;5003794;28;20495;-77
2024/04/06 08:08:35;;;;;;;3.30;1.40;;;13.50;99.90;;;14.13;100.00;97989.53;5000708;28;20467;-76
2024/04/06 08:11:02;;;;;;;2.30;1.30;;;13.50;99.90;;;14.17;100.00;97988.09;5001789;28;20478;-76
2024/04/06 08:13:31;;;;;;;3.43;1.70;;;13.60;99.90;;;14.28;100.00;97991.88;5005422;28;20495;-76
2024/04/06 08:15:57;;;;;;;1.67;1.10;;;13.60;99.90;;;14.34;100.00;97985.78;5004100;28;20472;-76
2024/04/06 08:18:26;;;;;;;1.43;1.10;;;13.70;99.90;;;14.38;100.00;97982.53;4997935;28;20481;-76
2024/04/06 08:20:53;;;;;;;1.50;1.10;;;13.80;99.90;;;14.49;100.00;97992.38;5003557;28;20482;-76
2024/04/06 08:23:20;;;;;;;2.93;1.53;;;13.90;99.90;;;14.62;100.00;97994.09;5001894;28;20474;-76
2024/04/06 08:25:49;;;;;;;1.30;1.00;;;14.10;99.90;;;14.67;100.00;98004.00;5018307;28;20494;-75
2024/04/06 08:28:17;;;;;;;5.00;1.20;;;14.10;99.90;;;14.84;100.00;98008.53;5003317;28;20472;-76
2024/04/06 08:30:44;;;;;;;1.93;1.10;;;14.20;99.90;;;15.04;100.00;98006.53;5019317;28;20475;-76
2024/04/06 08:33:11;;;;;;;2.03;1.10;;;14.40;99.90;;;15.13;100.00;98004.44;5002155;28;20969;-76
2024/04/06 08:35:39;;;;;;;3.93;1.30;;;14.40;99.90;;;15.25;100.00;97997.41;5003836;28;20486;-76
2024/04/06 08:38:08;;;;;;;2.70;0.90;;;14.60;99.90;;;15.40;100.00;98004.97;5005784;28;20968;-76
2024/04/06 08:40:41;;;;;;;1.43;1.10;;;14.70;99.90;;;15.50;100.00;98002.66;5002717;28;20565;-76
2024/04/06 08:43:13;;;;;;;4.37;1.30;;;14.90;99.90;;;15.70;100.00;97989.25;5002287;28;20462;-76
2024/04/06 08:45:42;;;;;;;2.57;1.10;;;15.00;99.90;;;15.84;100.00;97983.59;5018546;28;20495;-76
2024/04/06 08:48:11;;;;;;;3.57;1.20;;;15.10;99.90;;;16.01;100.00;97981.16;5002757;28;21413;-75
2024/04/06 08:50:41;;;;;;;6.03;1.20;;;15.40;99.90;;;16.07;100.00;97981.06;5005154;28;20451;-76
2024/04/06 08:53:11;;;;;;;1.40;1.07;;;15.40;99.90;;;16.25;100.00;97988.13;5005708;28;20469;-76
2024/04/06 08:55:39;;;;;;;1.60;1.10;;;15.50;99.90;;;16.38;100.00;97981.88;5020766;28;20456;-76
2024/04/06 08:58:07;;;;;;;2.40;1.30;;;15.60;99.90;;;16.45;100.00;97982.59;5003209;28;20801;-76
2024/04/06 09:00:38;;;;;;;1.83;1.30;;;15.70;99.90;;;16.57;100.00;97989.53;5014751;28;20834;-76
2024/04/06 09:03:06;;;;;;;4.20;1.23;;;15.80;99.90;;;16.77;100.00;97986.56;5003457;28;20472;-76
2024/04/06 09:05:33;;;;;;;2.43;1.20;;;16.10;99.90;;;17.02;100.00;97984.53;5001110;28;20492;-76
2024/04/06 09:08:02;;;;;;;1.50;1.00;;;16.40;99.90;;;17.04;100.00;97984.31;5014097;28;20472;-76
2024/04/06 09:10:29;;;;;;;1.30;1.00;;;16.30;99.90;;;17.11;100.00;97988.44;5014831;28;20467;-76
2024/04/06 09:12:56;;;;;;;4.77;1.50;;;16.40;99.90;;;17.25;100.00;97985.56;5014089;28;20514;-76
2024/04/06 09:15:26;;;;;;;2.20;1.20;;;16.50;99.90;;;17.40;100.00;97991.19;5014349;28;20487;-76
2024/04/06 09:17:55;;;;;;;1.80;1.13;;;16.80;99.90;;;17.40;100.00;97989.34;5004372;28;20478;-76
2024/04/06 09:20:22;;;;;;;4.50;1.30;;;16.70;99.90;;;17.49;100.00;97995.09;5010378;28;20471;-76
2024/04/06 09:22:49;;;;;;;5.53;1.63;;;16.80;99.90;;;17.54;100.00;97997.81;5003222;28;20470;-76
2024/04/06 09:25:19;;;;;;;1.37;1.13;;;16.90;99.90;;;17.62;100.00;97980.84;5001310;28;20541;-76
2024/04/06 09:27:46;;;;;;;2.93;1.23;;;16.90;99.90;;;17.66;100.00;97972.22;5001664;28;20476;-77
2024/04/06 09:30:14;;;;;;;2.20;0.90;;;17.00;99.90;;;17.71;100.00;97976.78;5003625;28;20858;-76
2024/04/06 09:32:42;;;;;;;1.83;1.30;;;17.00;99.90;;;17.74;100.00;97973.66;5000627;28;20463;-76
2024/04/06 09:35:11;;;;;;;4.63;1.40;;;17.10;99.90;;;17.77;100.00;97970.56;5005173;28;20468;-77
2024/04/06 09:37:41;;;;;;;3.10;1.20;;;17.10;99.90;;;17.86;100.00;97974.44;5003571;28;21025;-76
2024/04/06 09:40:10;;;;;;;2.27;1.40;;;17.30;99.90;;;17.89;100.00;97971.31;5001868;28;20553;-75
2024/04/06 09:42:38;;;;;;;1.97;1.30;;;17.20;99.90;;;17.90;100.00;97979.03;5018088;28;20460;-76
2024/04/06 09:45:08;;;;;;;5.00;1.33;;;17.20;99.90;;;17.94;100.00;97979.38;5017998;28;20467;-76
2024/04/06 09:47:35;;;;;;;3.90;1.30;;;17.30;99.90;;;17.95;100.00;97978.31;5016647;28;20471;-76
2024/04/06 09:50:02;;;;;;;3.00;0.97;;;17.20;99.90;;;17.97;100.00;97971.78;5005722;28;20476;-76
2024/04/06 09:52:29;;;;;;;3.50;1.37;;;17.30;99.90;;;18.07;97.80;97976.44;5003406;28;20458;-76
2024/04/06 09:54:57;;;;;;;3.10;1.10;;;17.30;99.90;;;18.14;96.51;97971.00;5009556;28;20472;-76
2024/04/06 09:57:24;;;;;;;1.70;1.10;;;17.40;99.90;;;18.23;95.80;97959.78;5021348;28;20471;-76
2024/04/06 10:00:04;;;;;;;5.10;1.30;;;17.50;99.90;;;18.33;95.50;97959.16;5011414;28;20485;-76
2024/04/06 10:02:34;;;;;;;1.50;1.10;;;17.60;99.90;;;18.36;90.94;97964.78;5008228;28;20475;-76
2024/04/06 10:05:05;;;;;;;2.90;1.30;;;17.60;99.90;;;18.36;87.25;97970.06;5005057;28;20468;-76
2024/04/06 10:07:34;;;;;;;3.10;1.30;;;17.60;99.90;;;18.44;89.39;97971.53;5008149;28;20476;-76
2024/04/06 10:10:04;;;;;;;4.77;1.30;;;17.70;99.90;;;18.47;92.07;97968.41;5003704;28;21133;-76
2024/04/06 10:12:43;;;;;;;1.40;1.10;;;17.80;99.90;;;18.49;90.74;97969.78;5015563;28;20478;-76
2024/04/06 10:15:21;;;;;;;4.43;1.53;;;17.80;99.90;;;18.51;92.99;97956.34;5003841;28;20993;-75